createdAt,value
2018-03-09T00:00:50.874Z,38.53
2018-03-09T00:01:50.894Z,38.34
2018-03-09T00:02:50.907Z,38.43
2018-03-09T00:03:50.666Z,38.71
2018-03-09T00:04:50.683Z,38.98
2018-03-09T00:05:50.699Z,39.36
2018-03-09T00:06:51.023Z,39.26
2018-03-09T00:07:50.991Z,39.36
2018-03-09T00:08:51.003Z,39.26
2018-03-09T00:09:51.015Z,39.07
2018-03-09T00:10:51.035Z,39.07
2018-03-09T00:11:51.053Z,39.36
2018-03-09T00:12:51.070Z,39.26
2018-03-09T00:13:51.122Z,39.57
2018-03-09T00:14:50.848Z,39.55
2018-03-09T00:15:51.123Z,39.07
2018-03-09T00:16:51.142Z,39.65
2018-03-09T00:17:51.160Z,39.07
2018-03-09T00:18:50.924Z,39.55
2018-03-09T00:19:51.188Z,39.84
2018-03-09T00:20:51.229Z,39.65
2018-03-09T00:21:51.278Z,39.74
2018-03-09T00:22:51.237Z,39.07
2018-03-09T00:23:51.002Z,39.19
2018-03-09T00:24:51.021Z,39.38
2018-03-09T00:25:51.035Z,39.28
2018-03-09T00:26:51.307Z,39.09
2018-03-09T00:27:51.326Z,39.36
2018-03-09T00:28:51.342Z,39.26
2018-03-09T00:29:51.358Z,39
2018-03-09T00:30:51.377Z,38.9
2018-03-09T00:31:51.406Z,38.62
2018-03-09T00:32:51.482Z,39.38
2018-03-09T00:33:51.425Z,39
2018-03-09T00:34:51.445Z,38.9
2018-03-09T00:35:51.457Z,38.53
2018-03-09T00:36:51.269Z,38.71
2018-03-09T00:37:51.488Z,38.9
2018-03-09T00:38:51.257Z,38.62
2018-03-09T00:39:51.535Z,38.53
2018-03-09T00:40:51.291Z,38.14
2018-03-09T00:41:51.562Z,38.71
2018-03-09T00:42:51.319Z,38.9
2018-03-09T00:43:51.337Z,39.28
2018-03-09T00:44:51.607Z,39.09
2018-03-09T00:45:51.624Z,38.81
2018-03-09T00:46:51.649Z,38.81
2018-03-09T00:47:51.659Z,38.34
2018-03-09T00:48:51.706Z,39
2018-03-09T00:49:51.691Z,38.9
2018-03-09T00:50:51.458Z,38.53
2018-03-09T00:51:51.522Z,38.81
2018-03-09T00:52:51.489Z,38.9
2018-03-09T00:53:51.759Z,38.71
2018-03-09T00:54:51.528Z,38.71
2018-03-09T00:55:51.791Z,38.62
2018-03-09T00:56:51.808Z,38.81
2018-03-09T00:57:51.577Z,38.62
2018-03-09T00:58:51.847Z,38.81
2018-03-09T00:59:51.862Z,38.24
2018-03-09T01:00:51.878Z,38.53
2018-03-09T01:01:51.893Z,38.53
2018-03-09T01:02:51.912Z,38.14
2018-03-09T01:03:51.933Z,38.34
2018-03-09T01:04:51.947Z,38.53
2018-03-09T01:05:51.971Z,38.62
2018-03-09T01:06:51.882Z,38.35
2018-03-09T01:07:51.997Z,38.64
2018-03-09T01:08:52.023Z,38.62
2018-03-09T01:09:51.792Z,38.81
2018-03-09T01:10:52.047Z,38.71
2018-03-09T01:11:51.811Z,38.35
2018-03-09T01:12:52.084Z,38.35
2018-03-09T01:13:52.098Z,38.64
2018-03-09T01:14:51.864Z,38.45
2018-03-09T01:15:52.134Z,38.35
2018-03-09T01:16:52.154Z,38.45
2018-03-09T01:17:51.914Z,38.26
2018-03-09T01:18:52.186Z,38.17
2018-03-09T01:19:51.947Z,38.26
2018-03-09T01:20:52.224Z,38.17
2018-03-09T01:21:52.290Z,38.54
2018-03-09T01:22:52.256Z,37.97
2018-03-09T01:23:52.272Z,38.26
2018-03-09T01:24:52.288Z,38.64
2018-03-09T01:25:52.305Z,38.17
2018-03-09T01:26:52.325Z,38.54
2018-03-09T01:27:52.344Z,38.54
2018-03-09T01:28:52.357Z,38.35
2018-03-09T01:29:52.378Z,38.26
2018-03-09T01:30:52.389Z,38.54
2018-03-09T01:31:52.412Z,38.73
2018-03-09T01:32:52.193Z,38.26
2018-03-09T01:33:52.444Z,38.45
2018-03-09T01:34:52.472Z,38.54
2018-03-09T01:35:52.222Z,38.83
2018-03-09T01:36:52.546Z,38.73
2018-03-09T01:37:52.261Z,38.92
2018-03-09T01:38:52.612Z,38.83
2018-03-09T01:39:52.553Z,38.73
2018-03-09T01:40:52.610Z,38.54
2018-03-09T01:41:52.588Z,38.45
2018-03-09T01:42:52.346Z,38.64
2018-03-09T01:43:52.615Z,38.83
2018-03-09T01:44:52.377Z,38.64
2018-03-09T01:45:52.652Z,39.21
2018-03-09T01:46:52.686Z,39.31
2018-03-09T01:47:52.690Z,38.92
2018-03-09T01:48:52.708Z,39.5
2018-03-09T01:49:52.721Z,39.31
2018-03-09T01:50:52.740Z,39.31
2018-03-09T01:51:52.503Z,39.59
2018-03-09T01:52:52.531Z,39.4
2018-03-09T01:53:52.791Z,38.92
2018-03-09T01:54:52.858Z,39.12
2018-03-09T01:55:52.828Z,39.5
2018-03-09T01:56:52.847Z,39.4
2018-03-09T01:57:52.599Z,39.87
2018-03-09T01:58:52.866Z,39.97
2018-03-09T01:59:52.635Z,39.97
2018-03-09T02:00:52.903Z,40.35
2018-03-09T02:01:52.931Z,40.26
2018-03-09T02:02:52.944Z,40.83
2018-03-09T02:03:52.962Z,40.64
2018-03-09T02:04:52.728Z,40.73
2018-03-09T02:05:52.745Z,40.83
2018-03-09T02:06:53.015Z,41.11
2018-03-09T02:07:53.031Z,41.59
2018-03-09T02:08:52.797Z,41.02
2018-03-09T02:09:53.116Z,41.11
2018-03-09T02:10:52.829Z,41.4
2018-03-09T02:11:53.104Z,41.4
2018-03-09T02:12:53.114Z,41.11
2018-03-09T02:13:53.141Z,41.11
2018-03-09T02:14:53.156Z,41.49
2018-03-09T02:15:53.168Z,41.21
2018-03-09T02:16:53.191Z,41.23
2018-03-09T02:17:52.952Z,41.4
2018-03-09T02:18:52.969Z,41.59
2018-03-09T02:19:52.985Z,41.97
2018-03-09T02:20:53.257Z,41.97
2018-03-09T02:21:53.278Z,42.16
2018-03-09T02:22:53.302Z,42.64
2018-03-09T02:23:53.322Z,41.97
2018-03-09T02:24:53.131Z,41.99
2018-03-09T02:25:53.345Z,42.16
2018-03-09T02:26:53.361Z,42.54
2018-03-09T02:27:53.122Z,42.44
2018-03-09T02:28:53.397Z,42.73
2018-03-09T02:29:53.411Z,43.4
2018-03-09T02:30:53.681Z,43.11
2018-03-09T02:31:53.458Z,43.4
2018-03-09T02:32:53.470Z,43.21
2018-03-09T02:33:53.499Z,43.21
2018-03-09T02:34:53.497Z,43.02
2018-03-09T02:35:53.589Z,43.21
2018-03-09T02:36:53.532Z,43.3
2018-03-09T02:37:53.552Z,43.59
2018-03-09T02:38:53.575Z,43.21
2018-03-09T02:39:53.589Z,43.49
2018-03-09T02:40:53.655Z,43.59
2018-03-09T02:41:53.618Z,43.59
2018-03-09T02:42:53.642Z,43.21
2018-03-09T02:43:53.657Z,43.59
2018-03-09T02:44:53.667Z,43.49
2018-03-09T02:45:53.688Z,43.3
2018-03-09T02:46:53.715Z,43.49
2018-03-09T02:47:53.724Z,43.49
2018-03-09T02:48:53.485Z,43.78
2018-03-09T02:49:53.504Z,43.59
2018-03-09T02:50:53.774Z,43.87
2018-03-09T02:51:53.793Z,43.97
2018-03-09T02:52:53.811Z,44.06
2018-03-09T02:53:53.581Z,44.16
2018-03-09T02:54:53.841Z,44.06
2018-03-09T02:55:53.915Z,44.16
2018-03-09T02:56:53.881Z,44.26
2018-03-09T02:57:53.908Z,43.87
2018-03-09T02:58:53.917Z,43.68
2018-03-09T02:59:53.930Z,43.8
2018-03-09T03:00:53.956Z,43.51
2018-03-09T03:01:53.709Z,43.61
2018-03-09T03:02:53.984Z,43.61
2018-03-09T03:03:53.746Z,43.59
2018-03-09T03:04:53.763Z,43.68
2018-03-09T03:05:54.032Z,43.68
2018-03-09T03:06:54.055Z,43.87
2018-03-09T03:07:53.816Z,43.78
2018-03-09T03:08:54.086Z,43.78
2018-03-09T03:09:54.105Z,43.78
2018-03-09T03:10:54.171Z,43.68
2018-03-09T03:11:53.882Z,43.71
2018-03-09T03:12:54.156Z,43.51
2018-03-09T03:13:53.917Z,43.9
2018-03-09T03:14:54.188Z,43.68
2018-03-09T03:15:54.204Z,44.06
2018-03-09T03:16:54.221Z,44.16
2018-03-09T03:17:54.242Z,44.26
2018-03-09T03:18:54.002Z,44.64
2018-03-09T03:19:54.019Z,44.92
2018-03-09T03:20:54.291Z,44.82
2018-03-09T03:21:54.309Z,44.82
2018-03-09T03:22:54.069Z,44.82
2018-03-09T03:23:54.339Z,44.45
2018-03-09T03:24:54.356Z,44.06
2018-03-09T03:25:54.325Z,43.97
2018-03-09T03:26:54.141Z,44.64
2018-03-09T03:27:54.156Z,44.82
2018-03-09T03:28:54.185Z,44.73
2018-03-09T03:29:54.445Z,44.54
2018-03-09T03:30:54.471Z,44.82
2018-03-09T03:31:54.482Z,44.92
2018-03-09T03:32:54.496Z,45.11
2018-03-09T03:33:54.515Z,44.92
2018-03-09T03:34:54.531Z,44.92
2018-03-09T03:35:54.545Z,45.11
2018-03-09T03:36:54.567Z,45.4
2018-03-09T03:37:54.335Z,45.21
2018-03-09T03:38:54.598Z,45.49
2018-03-09T03:39:54.364Z,45.21
2018-03-09T03:40:54.622Z,45.3
2018-03-09T03:41:54.435Z,44.64
2018-03-09T03:42:54.665Z,45.01
2018-03-09T03:43:54.676Z,45.01
2018-03-09T03:44:54.436Z,44.73
2018-03-09T03:45:54.458Z,45.21
2018-03-09T03:46:54.724Z,44.82
2018-03-09T03:47:54.489Z,45.59
2018-03-09T03:48:54.506Z,45.49
2018-03-09T03:49:54.783Z,45.01
2018-03-09T03:50:54.547Z,44.82
2018-03-09T03:51:54.818Z,45.01
2018-03-09T03:52:54.832Z,45.11
2018-03-09T03:53:54.861Z,45.4
2018-03-09T03:54:54.615Z,45.3
2018-03-09T03:55:54.632Z,45.3
2018-03-09T03:56:54.963Z,45.78
2018-03-09T03:57:54.666Z,45.78
2018-03-09T03:58:54.936Z,45.68
2018-03-09T03:59:54.955Z,45.97
2018-03-09T04:00:54.733Z,45.68
2018-03-09T04:01:54.986Z,45.49
2018-03-09T04:02:54.751Z,45.68
2018-03-09T04:03:55.023Z,45.78
2018-03-09T04:04:55.042Z,46.06
2018-03-09T04:05:55.057Z,46.06
2018-03-09T04:06:54.817Z,45.78
2018-03-09T04:07:55.088Z,45.59
2018-03-09T04:08:55.105Z,45.78
2018-03-09T04:09:54.868Z,46.25
2018-03-09T04:10:55.143Z,46.25
2018-03-09T04:11:55.203Z,47.2
2018-03-09T04:12:55.170Z,46.35
2018-03-09T04:13:55.189Z,46.63
2018-03-09T04:14:55.220Z,46.35
2018-03-09T04:15:55.231Z,45.97
2018-03-09T04:16:55.240Z,46.35
2018-03-09T04:17:55.006Z,46.06
2018-03-09T04:18:55.024Z,46.73
2018-03-09T04:19:55.295Z,46.15
2018-03-09T04:20:55.314Z,45.97
2018-03-09T04:21:55.077Z,46.15
2018-03-09T04:22:55.432Z,46.06
2018-03-09T04:23:55.346Z,47.11
2018-03-09T04:24:55.386Z,46.54
2018-03-09T04:25:55.382Z,46.54
2018-03-09T04:26:55.451Z,46.92
2018-03-09T04:27:55.440Z,47.11
2018-03-09T04:28:55.445Z,46.06
2018-03-09T04:29:55.212Z,46.06
2018-03-09T04:30:55.482Z,45.78
2018-03-09T04:31:55.500Z,46.06
2018-03-09T04:32:55.517Z,46.83
2018-03-09T04:33:55.532Z,47.11
2018-03-09T04:34:55.295Z,47.2
2018-03-09T04:35:55.570Z,47.11
2018-03-09T04:36:55.594Z,47.11
2018-03-09T04:37:55.599Z,46.83
2018-03-09T04:38:55.620Z,46.63
2018-03-09T04:39:55.633Z,46.44
2018-03-09T04:40:55.652Z,46.54
2018-03-09T04:41:55.719Z,47.02
2018-03-09T04:42:55.431Z,46.63
2018-03-09T04:43:55.450Z,46.83
2018-03-09T04:44:55.719Z,46.83
2018-03-09T04:45:55.735Z,47.3
2018-03-09T04:46:55.754Z,47.3
2018-03-09T04:47:55.774Z,47.2
2018-03-09T04:48:55.536Z,46.54
2018-03-09T04:49:55.805Z,46.92
2018-03-09T04:50:55.824Z,47.02
2018-03-09T04:51:55.859Z,47.2
2018-03-09T04:52:55.855Z,47.11
2018-03-09T04:53:55.869Z,47.02
2018-03-09T04:54:55.887Z,46.44
2018-03-09T04:55:55.654Z,46.83
2018-03-09T04:56:55.974Z,47.2
2018-03-09T04:57:55.690Z,46.54
2018-03-09T04:58:55.705Z,46.35
2018-03-09T04:59:55.978Z,46.92
2018-03-09T05:00:55.996Z,46.25
2018-03-09T05:01:56.025Z,46.15
2018-03-09T05:02:56.030Z,46.83
2018-03-09T05:03:56.050Z,46.15
2018-03-09T05:04:56.064Z,46.06
2018-03-09T05:05:56.081Z,46.83
2018-03-09T05:06:56.103Z,46.15
2018-03-09T05:07:56.114Z,46.06
2018-03-09T05:08:56.130Z,46.92
2018-03-09T05:09:56.150Z,47.2
2018-03-09T05:10:56.172Z,46.44
2018-03-09T05:11:55.977Z,46.44
2018-03-09T05:12:56.199Z,47.3
2018-03-09T05:13:56.227Z,46.35
2018-03-09T05:14:56.239Z,46.44
2018-03-09T05:15:56.250Z,47.11
2018-03-09T05:16:56.271Z,46.92
2018-03-09T05:17:56.034Z,47.78
2018-03-09T05:18:56.305Z,47.2
2018-03-09T05:19:56.320Z,47.3
2018-03-09T05:20:56.340Z,47.2
2018-03-09T05:21:56.352Z,47.02
2018-03-09T05:22:56.373Z,47.78
2018-03-09T05:23:56.388Z,48.44
2018-03-09T05:24:56.407Z,47.78
2018-03-09T05:25:56.427Z,48.82
2018-03-09T05:26:56.490Z,48.06
2018-03-09T05:27:56.456Z,47.68
2018-03-09T05:28:56.499Z,47.78
2018-03-09T05:29:56.491Z,47.87
2018-03-09T05:30:56.574Z,47.87
2018-03-09T05:31:56.524Z,48.06
2018-03-09T05:32:56.543Z,47.78
2018-03-09T05:33:56.563Z,47.78
2018-03-09T05:34:56.576Z,47.87
2018-03-09T05:35:56.599Z,47.49
2018-03-09T05:36:56.657Z,47.87
2018-03-09T05:37:56.626Z,47.58
2018-03-09T05:38:56.660Z,47.68
2018-03-09T05:39:56.674Z,47.87
2018-03-09T05:40:56.681Z,47.32
2018-03-09T05:41:56.747Z,47.32
2018-03-09T05:42:56.462Z,47.78
2018-03-09T05:43:56.732Z,47.2
2018-03-09T05:44:56.495Z,47.3
2018-03-09T05:45:56.512Z,47.02
2018-03-09T05:46:56.532Z,47.3
2018-03-09T05:47:56.799Z,47.11
2018-03-09T05:48:56.821Z,47.3
2018-03-09T05:49:56.835Z,47.58
2018-03-09T05:50:56.867Z,47.2
2018-03-09T05:51:56.868Z,47.2
2018-03-09T05:52:56.893Z,47.87
2018-03-09T05:53:56.906Z,47.68
2018-03-09T05:54:56.927Z,47.11
2018-03-09T05:55:56.689Z,47.11
2018-03-09T05:56:57.009Z,46.92
2018-03-09T05:57:56.978Z,47.58
2018-03-09T05:58:56.996Z,47.58
2018-03-09T05:59:57.012Z,47.58
2018-03-09T06:00:57.032Z,47.87
2018-03-09T06:01:56.794Z,47.71
2018-03-09T06:02:57.061Z,47.42
2018-03-09T06:03:57.080Z,47.61
2018-03-09T06:04:56.846Z,47.13
2018-03-09T06:05:57.131Z,47.04
2018-03-09T06:06:57.131Z,47.99
2018-03-09T06:07:56.901Z,47.13
2018-03-09T06:08:57.017Z,46.94
2018-03-09T06:09:57.183Z,47.13
2018-03-09T06:10:56.951Z,47.52
2018-03-09T06:11:57.222Z,47.71
2018-03-09T06:12:57.237Z,47.32
2018-03-09T06:13:57.313Z,47.23
2018-03-09T06:14:57.020Z,47.13
2018-03-09T06:15:57.296Z,47.23
2018-03-09T06:16:57.308Z,47.13
2018-03-09T06:17:57.074Z,47.52
2018-03-09T06:18:57.351Z,47.61
2018-03-09T06:19:57.364Z,47.52
2018-03-09T06:20:57.379Z,47.61
2018-03-09T06:21:57.398Z,47.04
2018-03-09T06:22:57.422Z,47.04
2018-03-09T06:23:57.185Z,47.32
2018-03-09T06:24:57.454Z,47.32
2018-03-09T06:25:57.472Z,47.06
2018-03-09T06:26:57.487Z,46.58
2018-03-09T06:27:57.507Z,46.66
2018-03-09T06:28:57.322Z,46.47
2018-03-09T06:29:57.544Z,46.37
2018-03-09T06:30:57.579Z,47.04
2018-03-09T06:31:57.321Z,46.68
2018-03-09T06:32:57.341Z,47.16
2018-03-09T06:33:57.623Z,46.39
2018-03-09T06:34:57.631Z,46.2
2018-03-09T06:35:57.652Z,46.18
2018-03-09T06:36:57.667Z,46.09
2018-03-09T06:37:57.429Z,46.66
2018-03-09T06:38:57.450Z,46.75
2018-03-09T06:39:57.817Z,46.84
2018-03-09T06:40:57.737Z,46.66
2018-03-09T06:41:57.501Z,46.84
2018-03-09T06:42:57.777Z,45.99
2018-03-09T06:43:57.557Z,46.84
2018-03-09T06:44:57.860Z,46.11
2018-03-09T06:45:57.831Z,46.01
2018-03-09T06:46:57.592Z,45.83
2018-03-09T06:47:57.608Z,45.54
2018-03-09T06:48:57.627Z,45.73
2018-03-09T06:49:57.644Z,45.25
2018-03-09T06:50:57.919Z,45.25
2018-03-09T06:51:57.683Z,45.25
2018-03-09T06:52:57.950Z,45.92
2018-03-09T06:53:57.974Z,45.92
2018-03-09T06:54:57.736Z,44.96
2018-03-09T06:55:58.005Z,45.06
2018-03-09T06:56:57.769Z,45.14
2018-03-09T06:57:58.048Z,44.96
2018-03-09T06:58:57.805Z,44.49
2018-03-09T06:59:58.128Z,44.01
2018-03-09T07:00:58.095Z,44.01
2018-03-09T07:01:58.218Z,44.39
2018-03-09T07:02:58.137Z,44.27
2018-03-09T07:03:58.150Z,43.63
2018-03-09T07:04:58.163Z,43.71
2018-03-09T07:05:58.185Z,43.71
2018-03-09T07:06:58.202Z,43.51
2018-03-09T07:07:58.218Z,43.63
2018-03-09T07:08:57.984Z,43.16
2018-03-09T07:09:58.256Z,43.35
2018-03-09T07:10:58.021Z,43.44
2018-03-09T07:11:58.296Z,43.44
2018-03-09T07:12:58.333Z,43.16
2018-03-09T07:13:58.337Z,42.4
2018-03-09T07:14:58.399Z,42.11
2018-03-09T07:15:58.374Z,41.82
2018-03-09T07:16:58.383Z,41.92
2018-03-09T07:17:58.411Z,42.2
2018-03-09T07:18:58.427Z,41.72
2018-03-09T07:19:58.443Z,42.01
2018-03-09T07:20:58.462Z,42.2
2018-03-09T07:21:58.479Z,41.92
2018-03-09T07:22:58.497Z,41.25
2018-03-09T07:23:58.512Z,41.35
2018-03-09T07:24:58.278Z,41.53
2018-03-09T07:25:58.552Z,41.53
2018-03-09T07:26:58.580Z,41.17
2018-03-09T07:27:58.588Z,40.58
2018-03-09T07:28:58.353Z,40.97
2018-03-09T07:29:58.422Z,40.77
2018-03-09T07:30:58.643Z,40.51
2018-03-09T07:31:58.667Z,40.48
2018-03-09T07:32:58.687Z,40.41
2018-03-09T07:33:58.446Z,40.48
2018-03-09T07:34:58.719Z,40.32
2018-03-09T07:35:58.737Z,39.84
2018-03-09T07:36:58.756Z,39.94
2018-03-09T07:37:58.785Z,40.03
2018-03-09T07:38:58.792Z,39.94
2018-03-09T07:39:58.812Z,39.56
2018-03-09T07:40:58.831Z,39.56
2018-03-09T07:41:58.593Z,39.65
2018-03-09T07:42:58.614Z,39.65
2018-03-09T07:43:58.886Z,39.84
2018-03-09T07:44:58.955Z,39.56
2018-03-09T07:45:58.923Z,39.94
2018-03-09T07:46:58.946Z,39.17
2018-03-09T07:47:58.962Z,39.17
2018-03-09T07:48:58.728Z,38.89
2018-03-09T07:49:58.998Z,38.71
2018-03-09T07:50:59.018Z,38.34
2018-03-09T07:51:58.783Z,38.24
2018-03-09T07:52:59.066Z,38.24
2018-03-09T07:53:58.821Z,37.95
2018-03-09T07:54:59.149Z,37.76
2018-03-09T07:55:59.115Z,37.86
2018-03-09T07:56:59.137Z,37.86
2018-03-09T07:57:58.894Z,36.83
2018-03-09T07:58:59.166Z,36.64
2018-03-09T07:59:59.238Z,36.44
2018-03-09T08:00:59.208Z,36.35
2018-03-09T08:01:58.973Z,36.16
2018-03-09T08:02:59.246Z,36.07
2018-03-09T08:03:59.266Z,36.44
2018-03-09T08:04:59.286Z,36.07
2018-03-09T08:05:59.301Z,35.97
2018-03-09T08:06:59.323Z,36.14
2018-03-09T08:07:59.351Z,36.43
2018-03-09T08:08:59.362Z,36.05
2018-03-09T08:09:59.129Z,36.44
2018-03-09T08:10:59.148Z,35.97
2018-03-09T08:11:59.169Z,36.35
2018-03-09T08:12:59.181Z,36.44
2018-03-09T08:13:59.454Z,36.25
2018-03-09T08:14:59.627Z,35.78
2018-03-09T08:15:59.241Z,35.49
2018-03-09T08:16:59.522Z,35.68
2018-03-09T08:17:59.285Z,35.68
2018-03-09T08:18:59.558Z,36.07
2018-03-09T08:19:59.581Z,35.97
2018-03-09T08:20:59.605Z,36.35
2018-03-09T08:21:59.618Z,36.16
2018-03-09T08:22:59.638Z,36.16
2018-03-09T08:23:59.406Z,36.07
2018-03-09T08:24:59.425Z,35.68
2018-03-09T08:25:59.697Z,35.87
2018-03-09T08:26:59.471Z,35.59
2018-03-09T08:27:59.756Z,35.87
2018-03-09T08:28:59.756Z,35.59
2018-03-09T08:29:59.518Z,35.39
2018-03-09T08:30:59.794Z,35.49
2018-03-09T08:31:59.607Z,35.03
2018-03-09T08:32:59.835Z,35.32
2018-03-09T08:33:59.852Z,34.94
2018-03-09T08:34:59.871Z,34.84
2018-03-09T08:35:59.638Z,35.03
2018-03-09T08:36:59.912Z,34.94
2018-03-09T08:37:59.678Z,35.22
2018-03-09T08:38:59.953Z,35.32
2018-03-09T08:39:59.971Z,34.94
2018-03-09T08:40:59.998Z,34.94
2018-03-09T08:42:00.024Z,34.84
2018-03-09T08:43:00.039Z,34.94
2018-03-09T08:43:59.805Z,34.84
2018-03-09T08:44:59.824Z,34.84
2018-03-09T08:45:59.844Z,35.03
2018-03-09T08:47:00.169Z,35.13
2018-03-09T08:48:00.140Z,35.03
2018-03-09T08:49:00.165Z,35.41
2018-03-09T08:49:59.927Z,34.84
2018-03-09T08:51:00.268Z,34.94
2018-03-09T08:52:00.223Z,34.77
2018-03-09T08:52:59.989Z,34.65
2018-03-09T08:54:00.260Z,34.46
2018-03-09T08:55:00.280Z,34.75
2018-03-09T08:56:00.306Z,34.95
2018-03-09T08:57:00.322Z,34.57
2018-03-09T08:58:00.340Z,34.77
2018-03-09T08:59:00.372Z,34.57
2018-03-09T09:00:00.130Z,34.09
2018-03-09T09:01:00.422Z,34.19
2018-03-09T09:02:00.475Z,34
2018-03-09T09:03:00.447Z,33.83
2018-03-09T09:04:00.468Z,33.73
2018-03-09T09:05:00.488Z,33.64
2018-03-09T09:06:00.513Z,33.25
2018-03-09T09:07:00.530Z,33.25
2018-03-09T09:08:00.551Z,33.25
2018-03-09T09:09:00.577Z,33.35
2018-03-09T09:10:00.592Z,33.73
2018-03-09T09:11:00.613Z,34.01
2018-03-09T09:12:00.637Z,34.19
2018-03-09T09:13:00.399Z,34.01
2018-03-09T09:14:00.421Z,33.73
2018-03-09T09:15:00.695Z,33.35
2018-03-09T09:16:00.464Z,33.36
2018-03-09T09:17:00.787Z,33.36
2018-03-09T09:18:00.871Z,33.73
2018-03-09T09:19:00.783Z,34.01
2018-03-09T09:20:00.801Z,34.67
2018-03-09T09:21:00.866Z,34.77
2018-03-09T09:22:00.639Z,34.77
2018-03-09T09:23:00.873Z,34.67
2018-03-09T09:24:00.890Z,34.48
2018-03-09T09:25:00.657Z,34.48
2018-03-09T09:26:00.931Z,34.38
2018-03-09T09:27:01.008Z,34.38
2018-03-09T09:28:00.976Z,34.57
2018-03-09T09:29:00.996Z,34.57
2018-03-09T09:30:00.763Z,34.77
2018-03-09T09:31:01.041Z,34.86
2018-03-09T09:32:01.061Z,34.95
2018-03-09T09:33:01.300Z,34.69
2018-03-09T09:34:01.101Z,34.11
2018-03-09T09:35:01.148Z,33.94
2018-03-09T09:36:01.014Z,33.17
2018-03-09T09:37:01.169Z,32.5
2018-03-09T09:38:00.935Z,32.89
2018-03-09T09:39:01.353Z,32.6
2018-03-09T09:40:01.236Z,32.5
2018-03-09T09:41:01.252Z,33.36
2018-03-09T09:42:01.070Z,33.27
2018-03-09T09:43:01.296Z,32.98
2018-03-09T09:44:01.328Z,32.62
2018-03-09T09:45:01.343Z,32.7
2018-03-09T09:46:01.108Z,33.27
2018-03-09T09:47:01.384Z,33.83
2018-03-09T09:48:01.407Z,33.92
2018-03-09T09:49:01.436Z,34.11
2018-03-09T09:50:01.458Z,34.01
2018-03-09T09:51:01.473Z,34.01
2018-03-09T09:52:01.493Z,33.83
2018-03-09T09:53:01.262Z,33.83
2018-03-09T09:54:01.607Z,34.01
2018-03-09T09:55:01.357Z,34.3
2018-03-09T09:56:01.585Z,34.2
2018-03-09T09:57:01.719Z,34.2
2018-03-09T09:58:01.627Z,33.64
2018-03-09T09:59:01.649Z,33.07
2018-03-09T10:00:01.668Z,32.98
2018-03-09T10:01:01.438Z,32.33
2018-03-09T10:02:01.715Z,32.14
2018-03-09T10:03:01.739Z,31.77
2018-03-09T10:04:01.508Z,32.25
2018-03-09T10:05:01.781Z,31.58
2018-03-09T10:06:01.550Z,31.96
2018-03-09T10:07:01.832Z,31.12
2018-03-09T10:08:01.849Z,31.02
2018-03-09T10:09:01.977Z,30.83
2018-03-09T10:10:01.897Z,31.02
2018-03-09T10:11:01.662Z,30.64
2018-03-09T10:12:01.697Z,30.83
2018-03-09T10:13:01.708Z,32.06
2018-03-09T10:14:01.733Z,32.44
2018-03-09T10:15:02.010Z,32.71
2018-03-09T10:16:02.034Z,32.81
2018-03-09T10:17:02.059Z,32.71
2018-03-09T10:18:02.151Z,32.81
2018-03-09T10:19:02.101Z,32.63
2018-03-09T10:20:02.157Z,31.96
2018-03-09T10:21:02.148Z,31.96
2018-03-09T10:22:02.170Z,31.87
2018-03-09T10:23:02.195Z,31.59
2018-03-09T10:24:02.216Z,31.23
2018-03-09T10:25:02.242Z,30.94
2018-03-09T10:26:02.264Z,30.08
2018-03-09T10:27:02.290Z,30.76
2018-03-09T10:28:02.311Z,30.84
2018-03-09T10:29:02.333Z,31.59
2018-03-09T10:30:02.359Z,31.32
2018-03-09T10:31:02.385Z,31.61
2018-03-09T10:32:02.409Z,31.98
2018-03-09T10:33:02.434Z,32.17
2018-03-09T10:34:02.203Z,32.17
2018-03-09T10:35:02.478Z,32.07
2018-03-09T10:36:02.504Z,31.79
2018-03-09T10:37:02.529Z,31.5
2018-03-09T10:38:02.351Z,31.88
2018-03-09T10:39:02.347Z,31.79
2018-03-09T10:40:02.603Z,31.98
2018-03-09T10:41:02.627Z,31.79
2018-03-09T10:42:02.654Z,31.12
2018-03-09T10:43:02.777Z,31.04
2018-03-09T10:44:02.446Z,31.04
2018-03-09T10:45:02.729Z,30.84
2018-03-09T10:46:02.516Z,30.09
2018-03-09T10:47:02.773Z,30.19
2018-03-09T10:48:02.544Z,30
2018-03-09T10:49:02.569Z,30
2018-03-09T10:50:02.860Z,30.19
2018-03-09T10:51:02.617Z,30.75
2018-03-09T10:52:02.899Z,30.84
2018-03-09T10:53:02.716Z,30.27
2018-03-09T10:54:02.690Z,30.84
2018-03-09T10:55:02.714Z,30.84
2018-03-09T10:56:02.992Z,31.23
2018-03-09T10:57:02.763Z,31.9
2018-03-09T10:58:03.060Z,32.17
2018-03-09T10:59:03.065Z,32.07
2018-03-09T11:00:03.090Z,31.5
2018-03-09T11:01:03.159Z,31.71
2018-03-09T11:02:02.882Z,30.94
2018-03-09T11:03:03.009Z,30.75
2018-03-09T11:04:02.931Z,30.75
2018-03-09T11:05:03.207Z,31.13
2018-03-09T11:06:02.975Z,30.67
2018-03-09T11:07:03.000Z,30.47
2018-03-09T11:08:03.327Z,30.2
2018-03-09T11:09:03.048Z,30.11
2018-03-09T11:10:03.330Z,30.01
2018-03-09T11:11:03.095Z,31.15
2018-03-09T11:12:03.377Z,30.76
2018-03-09T11:13:03.396Z,30.75
2018-03-09T11:14:03.420Z,31.24
2018-03-09T11:15:03.444Z,31.61
2018-03-09T11:16:03.471Z,32.18
2018-03-09T11:17:03.239Z,32.26
2018-03-09T11:18:03.256Z,32.26
2018-03-09T11:19:03.532Z,32.75
2018-03-09T11:20:03.559Z,32.65
2018-03-09T11:21:03.586Z,32.17
2018-03-09T11:22:03.604Z,32.36
2018-03-09T11:23:03.676Z,32.26
2018-03-09T11:24:03.648Z,31.9
2018-03-09T11:25:03.672Z,31.42
2018-03-09T11:26:03.694Z,31.05
2018-03-09T11:27:03.718Z,31.15
2018-03-09T11:28:03.744Z,30.47
2018-03-09T11:29:03.512Z,30
2018-03-09T11:30:03.791Z,30.11
2018-03-09T11:31:03.557Z,30
2018-03-09T11:32:03.834Z,30.11
2018-03-09T11:33:03.858Z,30.4
2018-03-09T11:34:03.634Z,31.05
2018-03-09T11:35:03.910Z,30.86
2018-03-09T11:36:03.936Z,30.57
2018-03-09T11:37:03.967Z,30.47
2018-03-09T11:38:04.030Z,30.76
2018-03-09T11:39:04.007Z,31.24
2018-03-09T11:40:04.026Z,31.13
2018-03-09T11:41:03.807Z,32.18
2018-03-09T11:42:04.073Z,32.17
2018-03-09T11:43:04.097Z,32.17
2018-03-09T11:44:03.866Z,31.99
2018-03-09T11:45:04.149Z,32.36
2018-03-09T11:46:03.917Z,32.55
2018-03-09T11:47:04.191Z,33.12
2018-03-09T11:48:04.216Z,33.4
2018-03-09T11:49:04.276Z,33.59
2018-03-09T11:50:04.010Z,33.78
2018-03-09T11:51:04.295Z,33.8
2018-03-09T11:52:04.325Z,33.8
2018-03-09T11:53:04.381Z,33.14
2018-03-09T11:54:04.361Z,32.95
2018-03-09T11:55:04.378Z,33.04
2018-03-09T11:56:04.398Z,32.86
2018-03-09T11:57:04.419Z,33.04
2018-03-09T11:58:04.444Z,33.14
2018-03-09T11:59:04.466Z,33.04
2018-03-09T12:00:04.287Z,32.67
2018-03-09T12:01:04.279Z,32.76
2018-03-09T12:02:04.569Z,32.59
2018-03-09T12:03:04.375Z,31.72
2018-03-09T12:04:04.339Z,31.64
2018-03-09T12:05:04.655Z,31.45
2018-03-09T12:06:04.701Z,31.26
2018-03-09T12:07:04.649Z,31.35
2018-03-09T12:08:04.721Z,31.26
2018-03-09T12:09:04.442Z,30.78
2018-03-09T12:10:04.474Z,30.78
2018-03-09T12:11:04.743Z,31.18
2018-03-09T12:12:04.764Z,30.7
2018-03-09T12:13:04.790Z,30.79
2018-03-09T12:14:04.815Z,31.18
2018-03-09T12:15:04.837Z,31.24
2018-03-09T12:16:04.860Z,31.26
2018-03-09T12:17:04.883Z,31.07
2018-03-09T12:18:04.960Z,30.97
2018-03-09T12:19:04.933Z,30.7
2018-03-09T12:20:04.961Z,29.83
2018-03-09T12:21:04.725Z,30.23
2018-03-09T12:22:05.001Z,30.22
2018-03-09T12:23:05.025Z,30.23
2018-03-09T12:24:05.052Z,30.33
2018-03-09T12:25:05.075Z,30.22
2018-03-09T12:26:05.102Z,30.89
2018-03-09T12:27:05.122Z,30.87
2018-03-09T12:28:05.144Z,30.78
2018-03-09T12:29:05.170Z,30.78
2018-03-09T12:30:05.195Z,31.16
2018-03-09T12:31:05.213Z,31.35
2018-03-09T12:32:04.996Z,30.87
2018-03-09T12:33:05.313Z,31.35
2018-03-09T12:34:05.273Z,31.64
2018-03-09T12:35:05.297Z,31.72
2018-03-09T12:36:05.323Z,31.84
2018-03-09T12:37:05.344Z,32.1
2018-03-09T12:38:05.368Z,32.6
2018-03-09T12:39:05.390Z,32.39
2018-03-09T12:40:05.197Z,32.59
2018-03-09T12:41:05.437Z,33.06
2018-03-09T12:42:05.460Z,33.45
2018-03-09T12:43:05.234Z,33.45
2018-03-09T12:44:05.523Z,33.24
2018-03-09T12:45:05.288Z,33.45
2018-03-09T12:46:05.308Z,33.16
2018-03-09T12:47:05.332Z,32.97
2018-03-09T12:48:05.356Z,33.45
2018-03-09T12:49:05.634Z,33.16
2018-03-09T12:50:05.449Z,32.49
2018-03-09T12:51:05.675Z,32.39
2018-03-09T12:52:05.445Z,32.29
2018-03-09T12:53:05.724Z,32.29
2018-03-09T12:54:05.508Z,32.29
2018-03-09T12:55:05.769Z,32.29
2018-03-09T12:56:05.793Z,31.84